Time;durP1;ratioP1;P1;durP2;ratioP2;P2;SDS_P1;SDS_P2;PMS_P1;PMS_P2;Temp;Humidity;BMP_temperature;BMP_pressure;BME280_temperature;BME280_humidity;BME280_pressure;Samples;Min_cycle;Max_cycle;Signal;HPM_P1;HPM_P2
2022/11/12 00:00:26;;;;;;;17.60;16.50;;;10.20;46.10;;;;;;4941769;29;20612;-58
2022/11/12 00:02:51;;;;;;;17.57;16.47;;;10.30;46.30;;;;;;4943729;29;20183;-58
2022/11/12 00:05:17;;;;;;;18.03;16.83;;;10.50;46.30;;;;;;4942133;29;20242;-59
2022/11/12 00:07:43;;;;;;;17.63;16.53;;;10.60;45.40;;;;;;4942004;29;20636;-58
2022/11/12 00:10:09;;;;;;;18.20;17.10;;;10.60;44.50;;;;;;4945152;29;20191;-58
2022/11/12 00:12:34;;;;;;;19.13;17.93;;;10.50;44.40;;;;;;4943652;29;20218;-58
2022/11/12 00:15:00;;;;;;;17.83;16.63;;;10.60;45.20;;;;;;4945439;29;20466;-58
2022/11/12 00:17:26;;;;;;;16.80;15.80;;;10.80;44.40;;;;;;4942212;29;20356;-58
2022/11/12 00:19:52;;;;;;;17.67;16.47;;;10.90;43.60;;;;;;4946471;28;20699;-58
2022/11/12 00:22:19;;;;;;;17.53;16.53;;;11.00;42.50;;;;;;4943100;29;20434;-58
2022/11/12 00:24:44;;;;;;;18.37;17.17;;;11.10;42.60;;;;;;4944592;28;20442;-57
2022/11/12 00:27:10;;;;;;;17.87;16.83;;;11.20;42.70;;;;;;4941426;29;20419;-56
2022/11/12 00:29:37;;;;;;;17.10;16.13;;;11.30;41.80;;;;;;4942059;29;20593;-57
2022/11/12 00:32:06;;;;;;;19.33;18.03;;;11.40;41.10;;;;;;4943570;29;20273;-57
2022/11/12 00:34:33;;;;;;;20.70;19.30;;;11.40;40.60;;;;;;4943702;29;20419;-57
2022/11/12 00:36:59;;;;;;;19.37;17.93;;;11.50;39.70;;;;;;4941543;29;20863;-57
2022/11/12 00:39:25;;;;;;;17.90;16.80;;;11.50;39.70;;;;;;4943350;28;20502;-57
2022/11/12 00:41:51;;;;;;;18.30;17.10;;;11.50;39.50;;;;;;4940747;29;20529;-56
2022/11/12 00:44:17;;;;;;;18.47;17.27;;;11.20;39.50;;;;;;4942966;29;20194;-57
2022/11/12 00:46:42;;;;;;;17.57;16.17;;;11.20;40.90;;;;;;4942037;29;20186;-55
2022/11/12 00:49:08;;;;;;;17.40;16.30;;;11.20;40.60;;;;;;4941735;29;20187;-56
2022/11/12 00:51:34;;;;;;;16.13;15.23;;;11.30;40.40;;;;;;4943554;29;20219;-56
2022/11/12 00:54:00;;;;;;;16.10;15.20;;;11.30;39.80;;;;;;4941108;29;20218;-58
2022/11/12 00:56:26;;;;;;;17.30;16.30;;;11.40;39.60;;;;;;4941387;29;20423;-56
2022/11/12 00:58:51;;;;;;;16.00;15.00;;;11.40;39.20;;;;;;4944087;28;20175;-57
2022/11/12 01:01:17;;;;;;;15.63;14.73;;;11.30;39.20;;;;;;4942420;29;20528;-57
2022/11/12 01:03:43;;;;;;;16.07;15.10;;;11.20;38.80;;;;;;4941695;29;20628;-57
2022/11/12 01:06:12;;;;;;;16.10;15.10;;;10.90;39.60;;;;;;4941621;29;20230;-57
2022/11/12 01:08:38;;;;;;;15.60;14.70;;;10.80;41.10;;;;;;4942064;28;20183;-57
2022/11/12 01:11:16;;;;;;;15.90;15.00;;;10.80;41.30;;;;;;4942939;28;20419;-59
2022/11/12 01:13:44;;;;;;;17.30;16.30;;;10.90;40.60;;;;;;4940157;29;20563;-58
2022/11/12 01:16:18;;;;;;;15.57;14.67;;;11.00;40.10;;;;;;4943335;29;20492;-58
2022/11/12 01:18:45;;;;;;;16.37;15.47;;;11.00;39.80;;;;;;4941402;29;20427;-58
2022/11/12 01:21:12;;;;;;;16.13;15.23;;;10.90;39.40;;;;;;4941668;29;20427;-58
2022/11/12 01:23:39;;;;;;;14.27;13.57;;;10.80;39.50;;;;;;4942088;29;20429;-58
2022/11/12 01:26:14;;;;;;;15.30;14.40;;;10.60;39.90;;;;;;4943152;29;20422;-58
2022/11/12 01:28:40;;;;;;;15.47;14.67;;;10.40;39.70;;;;;;4943664;28;20477;-58
2022/11/12 01:31:18;;;;;;;16.07;15.27;;;10.30;40.70;;;;;;4940412;28;20423;-59
2022/11/12 01:33:46;;;;;;;15.43;14.73;;;10.10;41.10;;;;;;4947054;29;20505;-58
2022/11/12 01:36:13;;;;;;;16.00;15.20;;;9.90;42.50;;;;;;4944678;29;20888;-58
2022/11/12 01:38:41;;;;;;;16.83;15.90;;;9.80;42.40;;;;;;4942942;29;20467;-58
2022/11/12 01:41:09;;;;;;;16.90;16.00;;;9.70;43.30;;;;;;4944776;29;20415;-58
2022/11/12 01:43:34;;;;;;;17.30;16.30;;;9.60;44.80;;;;;;4944434;29;20497;-58
2022/11/12 01:46:04;;;;;;;16.67;15.70;;;9.80;43.80;;;;;;4942267;29;20469;-58
2022/11/12 01:48:45;;;;;;;17.10;16.10;;;9.70;43.60;;;;;;4944327;29;21434;-58
2022/11/12 01:51:12;;;;;;;16.70;15.80;;;9.70;43.90;;;;;;4944358;29;20522;-58
2022/11/12 01:53:43;;;;;;;17.07;15.97;;;10.00;42.80;;;;;;4944778;29;20546;-58
2022/11/12 01:56:09;;;;;;;16.77;15.67;;;10.20;41.80;;;;;;4943839;29;20850;-58
2022/11/12 01:58:37;;;;;;;17.03;16.03;;;10.40;41.40;;;;;;4943821;29;20857;-58
2022/11/12 02:01:03;;;;;;;16.10;15.20;;;10.50;40.40;;;;;;4943435;29;20422;-58
2022/11/12 02:03:28;;;;;;;16.47;15.63;;;10.70;39.40;;;;;;4942817;29;20982;-59
2022/11/12 02:05:59;;;;;;;15.87;14.97;;;10.70;38.60;;;;;;4943469;29;20219;-58
2022/11/12 02:08:26;;;;;;;15.47;14.67;;;10.60;37.30;;;;;;4943970;29;20275;-58
2022/11/12 02:10:52;;;;;;;14.90;14.20;;;10.10;39.50;;;;;;4943605;29;20947;-57
2022/11/12 02:16:04;;;;;;;15.53;14.83;;;10.00;39.60;;;;;;4944884;29;20221;-56
2022/11/12 02:18:30;;;;;;;15.07;14.37;;;9.70;41.80;;;;;;4944667;29;20411;-57
2022/11/12 02:21:00;;;;;;;16.33;15.53;;;9.60;42.30;;;;;;4942241;29;20785;-57
2022/11/12 02:23:26;;;;;;;16.13;15.33;;;9.40;42.70;;;;;;4941962;29;20210;-57
2022/11/12 02:25:52;;;;;;;16.73;15.93;;;9.20;43.20;;;;;;4942362;29;20427;-56
2022/11/12 02:28:17;;;;;;;16.03;15.23;;;9.10;43.70;;;;;;4943088;29;20219;-57
2022/11/12 02:30:47;;;;;;;16.40;15.60;;;9.10;44.20;;;;;;4941400;29;20670;-58
2022/11/12 02:33:13;;;;;;;14.50;13.80;;;9.00;44.20;;;;;;4942757;29;20223;-58
2022/11/12 02:35:39;;;;;;;17.30;16.37;;;9.00;44.40;;;;;;4941380;29;20470;-57
2022/11/12 02:38:06;;;;;;;18.33;17.23;;;9.20;44.20;;;;;;4942743;29;20321;-58
2022/11/12 02:40:32;;;;;;;18.93;17.83;;;9.30;44.30;;;;;;4942244;29;20955;-58
2022/11/12 02:42:58;;;;;;;18.60;17.40;;;9.40;43.70;;;;;;4942047;28;20609;-58
2022/11/12 02:45:24;;;;;;;16.43;15.53;;;9.40;43.80;;;;;;4943513;29;20558;-58
2022/11/12 02:47:49;;;;;;;14.67;13.97;;;9.30;42.80;;;;;;4945022;29;20423;-58
2022/11/12 02:50:15;;;;;;;16.70;15.70;;;9.10;43.10;;;;;;4942633;29;20498;-58
2022/11/12 02:52:40;;;;;;;15.70;14.90;;;9.00;43.90;;;;;;4944534;28;20269;-58
2022/11/12 02:55:08;;;;;;;15.97;15.13;;;8.90;44.20;;;;;;4943987;29;20270;-58
2022/11/12 02:57:35;;;;;;;15.63;14.87;;;9.00;44.60;;;;;;4940764;29;20184;-56
2022/11/12 03:00:02;;;;;;;16.10;15.20;;;9.10;44.30;;;;;;4942110;29;20479;-56
2022/11/12 03:02:28;;;;;;;15.50;14.70;;;9.30;43.10;;;;;;4943305;29;20522;-57
2022/11/12 03:08:15;;;;;;;17.00;16.00;;;9.70;42.30;;;;;;4945463;29;20250;-56
2022/11/12 03:10:41;;;;;;;16.37;15.57;;;10.00;40.20;;;;;;4941975;29;20427;-58
2022/11/12 03:13:06;;;;;;;17.73;16.77;;;10.10;39.50;;;;;;4943213;29;20226;-57
2022/11/12 03:15:32;;;;;;;16.27;15.47;;;10.30;38.90;;;;;;4942246;29;20179;-57
2022/11/12 03:17:59;;;;;;;18.00;16.80;;;10.30;38.20;;;;;;4940970;29;20274;-57
2022/11/12 03:20:25;;;;;;;20.60;19.40;;;10.10;38.10;;;;;;4940852;29;20598;-57
2022/11/12 03:22:55;;;;;;;18.80;17.70;;;9.80;40.00;;;;;;4941080;29;20431;-59
2022/11/12 03:25:21;;;;;;;18.60;17.60;;;9.60;40.80;;;;;;4943741;29;20458;-58
2022/11/12 03:27:46;;;;;;;21.00;19.80;;;9.40;41.50;;;;;;4941850;29;20465;-59
2022/11/12 03:30:12;;;;;;;18.50;17.47;;;9.40;42.10;;;;;;4941816;29;20191;-56
2022/11/12 03:32:38;;;;;;;18.60;17.53;;;9.60;41.90;;;;;;4926834;29;20211;-57
2022/11/12 03:35:04;;;;;;;20.43;18.90;;;9.80;40.90;;;;;;4942156;29;20274;-57
2022/11/12 03:37:29;;;;;;;17.40;16.50;;;9.90;40.10;;;;;;4940763;29;20188;-57
2022/11/12 03:39:55;;;;;;;18.57;17.30;;;10.00;37.90;;;;;;4939945;29;20418;-57
2022/11/12 03:42:21;;;;;;;16.23;15.43;;;9.80;39.10;;;;;;4943592;29;20183;-58
2022/11/12 03:44:46;;;;;;;18.70;17.70;;;9.70;39.00;;;;;;4939877;29;20648;-59
2022/11/12 03:47:12;;;;;;;18.03;17.03;;;9.50;39.90;;;;;;4943112;29;20194;-58
2022/11/12 03:49:37;;;;;;;17.23;16.33;;;9.40;40.60;;;;;;4941626;29;20207;-58
2022/11/12 03:52:03;;;;;;;16.23;15.40;;;9.20;41.10;;;;;;4941938;29;20176;-58
2022/11/12 03:54:29;;;;;;;14.80;14.10;;;9.10;40.60;;;;;;4940346;28;20218;-58
2022/11/12 03:56:54;;;;;;;14.20;13.60;;;8.90;41.30;;;;;;4944223;29;20210;-58
2022/11/12 03:59:20;;;;;;;14.07;13.53;;;8.70;41.50;;;;;;4939767;29;20183;-58
2022/11/12 04:01:46;;;;;;;14.37;13.67;;;8.40;41.50;;;;;;4941236;29;20194;-58
2022/11/12 04:04:11;;;;;;;13.60;13.00;;;8.40;42.70;;;;;;4941066;29;20249;-58
2022/11/12 04:09:22;;;;;;;15.33;14.63;;;8.30;42.80;;;;;;4943656;29;20202;-55
2022/11/12 04:11:48;;;;;;;14.30;13.70;;;8.40;42.70;;;;;;4942157;29;20426;-56
2022/11/12 04:14:13;;;;;;;13.83;13.23;;;8.50;42.20;;;;;;4943743;29;20211;-56
2022/11/12 04:22:09;;;;;;;13.57;12.97;;;8.90;41.00;;;;;;4946032;29;20438;-56
2022/11/12 04:27:26;;;;;;;14.13;13.53;;;9.10;40.30;;;;;;4946657;29;20446;-56
2022/11/12 04:32:44;;;;;;;13.90;13.40;;;9.30;38.50;;;;;;4948665;29;20569;-57
2022/11/12 04:35:10;;;;;;;14.07;13.47;;;9.20;38.30;;;;;;4947614;29;20935;-55
2022/11/12 04:37:45;;;;;;;13.20;12.70;;;9.00;39.80;;;;;;4950046;29;20418;-57
2022/11/12 04:46:05;;;;;;;16.73;15.87;;;9.10;39.20;;;;;;4951389;29;20442;-58
2022/11/12 04:48:31;;;;;;;16.80;15.90;;;9.10;39.50;;;;;;4950604;29;20423;-58
2022/11/12 04:51:00;;;;;;;16.53;15.53;;;9.00;39.30;;;;;;4948800;29;20245;-58
2022/11/12 04:53:27;;;;;;;14.13;13.53;;;9.10;39.10;;;;;;4950328;29;20463;-57
2022/11/12 04:55:55;;;;;;;14.40;13.70;;;9.10;39.20;;;;;;4951093;29;20442;-57
2022/11/12 04:58:21;;;;;;;14.13;13.43;;;9.20;39.20;;;;;;4948319;29;20466;-57
2022/11/12 05:00:47;;;;;;;14.50;13.77;;;9.20;39.20;;;;;;4950462;29;20777;-57
2022/11/12 05:03:13;;;;;;;13.57;12.97;;;9.10;39.20;;;;;;4949853;29;20415;-57
2022/11/12 05:05:39;;;;;;;13.07;12.50;;;9.20;39.40;;;;;;4952518;28;20426;-57
2022/11/12 05:08:04;;;;;;;12.43;11.90;;;9.20;38.90;;;;;;4954293;29;20175;-57
2022/11/12 05:10:30;;;;;;;12.10;11.50;;;9.40;38.30;;;;;;4954266;29;20183;-56
2022/11/12 05:12:56;;;;;;;11.30;10.80;;;9.50;38.00;;;;;;4953329;29;20210;-58
2022/11/12 05:15:22;;;;;;;11.70;11.20;;;9.60;36.60;;;;;;4952755;29;20208;-58
2022/11/12 05:17:48;;;;;;;13.90;13.20;;;9.20;38.10;;;;;;4952073;29;20422;-58
2022/11/12 05:20:14;;;;;;;14.60;13.90;;;9.00;39.10;;;;;;4953102;29;20926;-56
2022/11/12 05:22:39;;;;;;;15.17;14.47;;;8.80;39.60;;;;;;4954620;29;20268;-57
2022/11/12 05:25:06;;;;;;;14.50;13.80;;;8.80;40.00;;;;;;4953806;29;20511;-58
2022/11/12 05:27:33;;;;;;;13.87;13.07;;;8.80;41.00;;;;;;4955479;29;20183;-58
2022/11/12 05:29:58;;;;;;;13.00;12.40;;;8.90;39.80;;;;;;4952558;29;20511;-58
2022/11/12 05:32:24;;;;;;;13.20;12.60;;;9.10;39.10;;;;;;4955338;29;20438;-58
2022/11/12 05:34:50;;;;;;;14.37;13.67;;;9.20;38.40;;;;;;4955359;29;20562;-58
2022/11/12 05:37:15;;;;;;;15.97;15.07;;;9.00;38.80;;;;;;4954014;29;20282;-58
2022/11/12 05:39:41;;;;;;;16.30;15.40;;;8.90;39.60;;;;;;4955003;29;20720;-59
2022/11/12 05:42:07;;;;;;;16.47;15.57;;;8.90;39.70;;;;;;4952845;29;20179;-58
2022/11/12 05:44:33;;;;;;;16.00;15.20;;;8.90;40.00;;;;;;4954244;29;20231;-59
2022/11/12 05:46:58;;;;;;;14.97;14.27;;;8.80;39.40;;;;;;4952746;29;20426;-57
2022/11/12 05:49:24;;;;;;;15.20;14.50;;;8.70;40.00;;;;;;4955583;29;20194;-57
2022/11/12 05:51:50;;;;;;;15.63;14.93;;;8.70;40.20;;;;;;4953141;29;20211;-55
2022/11/12 05:54:16;;;;;;;15.33;14.53;;;8.70;40.20;;;;;;4950485;29;20207;-56
2022/11/12 05:56:42;;;;;;;15.10;14.40;;;8.70;40.20;;;;;;4954140;29;20842;-56
2022/11/12 05:59:09;;;;;;;14.97;14.27;;;8.70;40.20;;;;;;4953887;29;20429;-59
2022/11/12 06:01:42;;;;;;;14.90;14.13;;;8.60;40.30;;;;;;4953903;29;20175;-59
2022/11/12 06:04:09;;;;;;;14.70;14.00;;;8.40;42.00;;;;;;4953618;29;20534;-57
2022/11/12 06:06:35;;;;;;;14.40;13.60;;;8.20;42.60;;;;;;4953871;29;20423;-57
2022/11/12 06:09:00;;;;;;;14.93;14.20;;;8.20;43.80;;;;;;4952992;29;20526;-57
2022/11/12 06:11:26;;;;;;;15.00;14.30;;;8.20;43.50;;;;;;4936546;29;20219;-57
2022/11/12 06:13:51;;;;;;;14.30;13.70;;;8.30;42.80;;;;;;4952243;29;20258;-57
2022/11/12 06:16:17;;;;;;;14.57;13.87;;;8.50;42.50;;;;;;4953787;29;20183;-56
2022/11/12 06:18:43;;;;;;;13.93;13.33;;;8.80;41.60;;;;;;4953175;28;20175;-57
2022/11/12 06:21:20;;;;;;;14.47;13.77;;;9.10;40.30;;;;;;4954607;29;20661;-57
2022/11/12 06:23:48;;;;;;;14.20;13.60;;;9.10;39.10;;;;;;4953616;29;20187;-57
2022/11/12 06:26:13;;;;;;;14.57;13.87;;;8.90;40.40;;;;;;4953557;29;20446;-57
2022/11/12 06:28:39;;;;;;;13.40;12.80;;;8.90;40.00;;;;;;4952554;29;20415;-57
2022/11/12 06:31:05;;;;;;;13.43;12.83;;;8.70;40.50;;;;;;4952648;29;20716;-57
2022/11/12 06:33:30;;;;;;;13.10;12.50;;;8.80;41.10;;;;;;4953309;29;20223;-57
2022/11/12 06:36:04;;;;;;;13.20;12.63;;;8.90;40.10;;;;;;4954823;29;20179;-57
2022/11/12 06:38:35;;;;;;;12.67;12.07;;;9.00;38.70;;;;;;4952396;29;20274;-56
2022/11/12 06:41:00;;;;;;;13.20;12.50;;;8.70;39.50;;;;;;4951969;29;20508;-56
2022/11/12 06:43:29;;;;;;;12.80;12.30;;;8.60;40.70;;;;;;4962647;28;20473;-58
2022/11/12 06:45:59;;;;;;;12.50;12.00;;;8.70;40.30;;;;;;4968658;28;20191;-58
2022/11/12 06:48:25;;;;;;;12.80;12.30;;;8.90;39.70;;;;;;4958832;28;20490;-57
2022/11/12 06:50:51;;;;;;;12.77;12.27;;;9.00;39.80;;;;;;4952436;29;20442;-58
2022/11/12 06:53:16;;;;;;;12.50;12.00;;;9.30;39.40;;;;;;4951259;29;20466;-58
2022/11/12 06:55:42;;;;;;;11.87;11.37;;;9.60;38.20;;;;;;4952742;29;20254;-57
2022/11/12 06:58:08;;;;;;;12.20;11.70;;;9.80;37.30;;;;;;4952268;29;20628;-58
2022/11/12 07:00:33;;;;;;;12.60;12.10;;;10.00;35.50;;;;;;4967410;28;20191;-59
2022/11/12 07:02:59;;;;;;;12.20;11.70;;;10.20;34.60;;;;;;4971283;28;20190;-57
2022/11/12 07:05:25;;;;;;;12.40;11.90;;;10.30;34.20;;;;;;4972240;28;20189;-56
2022/11/12 07:07:50;;;;;;;12.87;12.37;;;10.30;33.70;;;;;;4974760;28;20189;-58
2022/11/12 07:10:16;;;;;;;12.70;12.20;;;10.40;33.30;;;;;;4972930;28;20189;-57
2022/11/12 07:12:42;;;;;;;12.17;11.60;;;10.30;33.30;;;;;;4973366;28;20667;-56
2022/11/12 07:15:08;;;;;;;13.00;12.50;;;10.10;34.60;;;;;;4971915;28;20179;-57
2022/11/12 07:17:33;;;;;;;14.10;13.43;;;10.10;34.50;;;;;;4972561;28;20178;-56
2022/11/12 07:19:59;;;;;;;13.20;12.60;;;10.20;33.90;;;;;;4972786;28;20457;-57
2022/11/12 07:22:25;;;;;;;14.70;14.03;;;10.30;34.00;;;;;;4982544;28;20244;-57
2022/11/12 07:24:51;;;;;;;13.70;13.10;;;10.30;33.70;;;;;;4990781;28;20461;-58
2022/11/12 07:27:16;;;;;;;13.50;12.90;;;10.30;34.10;;;;;;4990207;28;20272;-56
2022/11/12 07:29:42;;;;;;;13.30;12.70;;;10.30;34.00;;;;;;4989561;28;20194;-55
2022/11/12 07:32:08;;;;;;;14.20;13.50;;;10.40;33.80;;;;;;4989851;28;20185;-56
2022/11/12 07:34:33;;;;;;;13.77;13.20;;;10.20;33.60;;;;;;4994079;28;20214;-58
2022/11/12 07:36:59;;;;;;;14.20;13.60;;;9.60;37.00;;;;;;4990581;28;20178;-57
2022/11/12 07:39:24;;;;;;;14.27;13.50;;;9.40;38.20;;;;;;4991768;28;20244;-58
2022/11/12 07:41:50;;;;;;;13.47;12.87;;;9.30;38.60;;;;;;4992011;28;20668;-59
2022/11/12 07:44:16;;;;;;;15.27;14.57;;;9.20;38.90;;;;;;4992420;28;20193;-56
2022/11/12 07:46:41;;;;;;;13.90;13.30;;;9.20;38.70;;;;;;4975414;28;20190;-59
2022/11/12 07:49:07;;;;;;;14.23;13.63;;;9.30;39.20;;;;;;4973147;28;20569;-60
2022/11/12 07:51:33;;;;;;;13.93;13.23;;;9.20;39.00;;;;;;4972406;28;20194;-60
2022/11/12 07:53:58;;;;;;;15.80;15.00;;;9.10;40.10;;;;;;4972001;28;20624;-60
2022/11/12 07:56:25;;;;;;;14.20;13.70;;;9.00;40.00;;;;;;4972171;28;20183;-60
2022/11/12 07:58:51;;;;;;;14.03;13.43;;;9.00;40.50;;;;;;4972181;28;20183;-57
2022/11/12 08:01:50;;;;;;;13.67;13.17;;;9.00;41.70;;;;;;4970708;28;20418;-57
2022/11/12 08:04:15;;;;;;;13.23;12.70;;;9.10;40.30;;;;;;4949693;28;20433;-58
2022/11/12 08:06:41;;;;;;;13.77;13.17;;;9.10;39.30;;;;;;4970507;28;20820;-57
2022/11/12 08:09:07;;;;;;;13.67;13.07;;;9.10;39.60;;;;;;4968843;28;20631;-58
2022/11/12 08:11:34;;;;;;;12.83;12.30;;;9.00;40.20;;;;;;4970500;28;20182;-56
2022/11/12 08:14:00;;;;;;;12.93;12.37;;;9.10;39.70;;;;;;4972055;28;20565;-56
2022/11/12 08:16:25;;;;;;;14.50;13.80;;;9.10;39.20;;;;;;4970964;28;20501;-57
2022/11/12 08:18:51;;;;;;;14.27;13.53;;;9.10;39.40;;;;;;4971678;28;20458;-57
2022/11/12 08:21:18;;;;;;;13.80;12.90;;;9.30;39.60;;;;;;4971730;28;20187;-57
2022/11/12 08:23:44;;;;;;;13.40;12.60;;;9.60;39.00;;;;;;4972134;28;20182;-56
2022/11/12 08:26:14;;;;;;;13.83;13.23;;;9.60;38.00;;;;;;4972243;28;20480;-58
2022/11/12 08:28:40;;;;;;;13.80;13.00;;;9.60;37.90;;;;;;4970362;28;20868;-56
2022/11/12 08:31:09;;;;;;;14.43;13.83;;;9.50;38.40;;;;;;4970859;28;20419;-54
2022/11/12 08:33:34;;;;;;;13.97;13.17;;;9.70;39.30;;;;;;4972114;28;20276;-56
2022/11/12 08:36:05;;;;;;;13.63;13.03;;;9.80;38.70;;;;;;4971363;28;20414;-57
2022/11/12 08:38:31;;;;;;;13.57;13.07;;;9.80;38.60;;;;;;4971320;28;20186;-57
2022/11/12 08:41:05;;;;;;;13.93;13.33;;;10.00;36.20;;;;;;4971263;28;20418;-57
2022/11/12 08:43:30;;;;;;;13.97;13.37;;;9.80;38.00;;;;;;4971949;28;20544;-57
2022/11/12 08:45:58;;;;;;;13.10;12.60;;;10.00;37.50;;;;;;4970824;28;20862;-57
2022/11/12 08:48:24;;;;;;;15.30;14.50;;;10.10;36.60;;;;;;4972341;28;20549;-57
2022/11/12 08:50:50;;;;;;;16.50;15.70;;;10.00;36.70;;;;;;4965770;28;20435;-57
2022/11/12 08:53:16;;;;;;;15.87;15.07;;;10.00;37.60;;;;;;4952278;29;20473;-56
2022/11/12 08:55:41;;;;;;;14.87;14.27;;;10.30;37.20;;;;;;4951810;29;20183;-57
2022/11/12 08:58:09;;;;;;;15.90;15.10;;;10.50;35.60;;;;;;4951959;29;20183;-58
2022/11/12 09:00:40;;;;;;;15.00;14.10;;;10.60;35.80;;;;;;4951442;29;20263;-58
2022/11/12 09:03:07;;;;;;;15.07;14.37;;;10.70;35.10;;;;;;4965169;28;20444;-58
2022/11/12 09:05:36;;;;;;;14.87;14.17;;;10.60;35.30;;;;;;4989009;28;20427;-58
2022/11/12 09:08:07;;;;;;;15.43;14.63;;;10.60;34.50;;;;;;4988864;28;20833;-58
2022/11/12 09:10:33;;;;;;;16.20;15.30;;;10.50;36.00;;;;;;4987477;28;20423;-58
2022/11/12 09:12:59;;;;;;;15.17;14.17;;;10.50;35.30;;;;;;4990195;28;20973;-58
2022/11/12 09:15:25;;;;;;;14.93;14.30;;;10.40;35.90;;;;;;4990517;28;20424;-58
2022/11/12 09:17:59;;;;;;;15.33;14.43;;;10.30;36.40;;;;;;4989686;28;20178;-58
2022/11/12 09:20:27;;;;;;;15.40;14.70;;;10.50;36.60;;;;;;4989213;28;20771;-58
2022/11/12 09:22:53;;;;;;;15.43;14.53;;;10.60;35.40;;;;;;4991032;28;20848;-58
2022/11/12 09:25:19;;;;;;;15.03;14.30;;;10.50;36.20;;;;;;4989627;28;20420;-58
2022/11/12 09:27:45;;;;;;;15.03;14.00;;;10.60;35.60;;;;;;4988892;28;20452;-58
2022/11/12 09:30:11;;;;;;;15.50;14.70;;;10.60;36.20;;;;;;4989644;28;20182;-58
2022/11/12 09:32:36;;;;;;;15.20;14.43;;;10.40;36.60;;;;;;4990214;28;20186;-58
2022/11/12 09:35:02;;;;;;;16.73;15.40;;;10.30;37.30;;;;;;4989099;28;20499;-58
2022/11/12 09:37:28;;;;;;;16.40;15.50;;;10.20;37.80;;;;;;4990920;28;20245;-58
2022/11/12 09:39:54;;;;;;;15.50;14.60;;;10.20;38.30;;;;;;4990244;28;20509;-58
2022/11/12 09:42:21;;;;;;;15.90;15.00;;;10.30;38.40;;;;;;4990114;28;20209;-57
2022/11/12 09:45:03;;;;;;;15.30;14.40;;;10.20;38.10;;;;;;4987468;28;20236;-58
2022/11/12 09:47:34;;;;;;;16.10;15.37;;;10.30;38.30;;;;;;4990280;28;20448;-58
2022/11/12 09:50:24;;;;;;;17.27;16.27;;;10.30;38.40;;;;;;4988886;28;20976;-58
2022/11/12 09:52:59;;;;;;;16.73;15.83;;;10.40;38.10;;;;;;4991927;28;20473;-58
2022/11/12 09:55:29;;;;;;;15.40;14.60;;;10.40;38.30;;;;;;4993895;28;20447;-58
2022/11/12 09:57:56;;;;;;;16.07;15.17;;;10.40;39.10;;;;;;4992728;28;20467;-58
2022/11/12 10:00:21;;;;;;;16.00;15.20;;;10.40;38.30;;;;;;4960613;28;20442;-58
2022/11/12 10:02:58;;;;;;;15.47;14.73;;;10.50;38.40;;;;;;4980233;28;20421;-58
2022/11/12 10:05:27;;;;;;;16.73;15.83;;;10.60;38.20;;;;;;4993002;28;20213;-57
2022/11/12 10:08:24;;;;;;;16.60;15.60;;;10.70;37.90;;;;;;4993290;28;20961;-57
2022/11/12 10:10:58;;;;;;;17.70;16.77;;;10.80;37.80;;;;;;4990866;28;20421;-58
2022/11/12 10:13:46;;;;;;;15.83;15.03;;;11.00;37.20;;;;;;4993061;28;20492;-57
2022/11/12 10:16:47;;;;;;;16.33;15.43;;;11.00;36.90;;;;;;4993584;28;20410;-57
2022/11/12 10:19:25;;;;;;;16.27;15.47;;;11.10;36.60;;;;;;4973932;28;20421;-57
2022/11/12 10:22:21;;;;;;;16.40;15.60;;;11.00;36.90;;;;;;4992861;28;20413;-57
2022/11/12 10:24:47;;;;;;;16.63;15.83;;;10.90;37.80;;;;;;4992379;28;20484;-57
2022/11/12 10:27:21;;;;;;;16.67;15.80;;;11.00;37.50;;;;;;4989620;28;20445;-58
2022/11/12 10:29:52;;;;;;;17.30;16.23;;;11.10;36.80;;;;;;4992740;28;20471;-57
2022/11/12 10:32:18;;;;;;;16.83;15.90;;;11.10;36.80;;;;;;4992865;28;20412;-57
2022/11/12 10:34:44;;;;;;;16.93;15.43;;;11.20;36.90;;;;;;4993255;28;20464;-57
2022/11/12 10:37:21;;;;;;;16.57;15.60;;;11.40;36.70;;;;;;4993566;28;20186;-56
2022/11/12 10:39:47;;;;;;;16.07;15.07;;;11.40;36.40;;;;;;4994639;28;20237;-57
2022/11/12 10:42:18;;;;;;;14.87;14.17;;;11.40;36.10;;;;;;4992494;28;20409;-57
2022/11/12 10:44:45;;;;;;;17.20;16.13;;;11.50;36.20;;;;;;4993799;28;20241;-58
2022/11/12 10:47:30;;;;;;;16.77;15.93;;;11.40;36.60;;;;;;4980066;28;20426;-58
2022/11/12 10:50:08;;;;;;;15.90;15.03;;;11.40;36.30;;;;;;4960390;28;20429;-58
2022/11/12 10:52:34;;;;;;;14.90;14.20;;;11.30;37.10;;;;;;4958676;28;20522;-58
2022/11/12 10:55:15;;;;;;;15.53;14.73;;;11.50;37.00;;;;;;4961310;28;20434;-58
2022/11/12 10:57:41;;;;;;;16.20;15.20;;;11.50;36.20;;;;;;4965159;28;20521;-58
2022/11/12 11:00:17;;;;;;;16.73;15.93;;;11.40;36.30;;;;;;4971337;28;20569;-58
2022/11/12 11:02:51;;;;;;;15.20;14.40;;;11.50;36.10;;;;;;4968261;28;20213;-58
2022/11/12 11:05:36;;;;;;;17.07;15.57;;;11.60;36.40;;;;;;4966990;28;20806;-59
2022/11/12 11:08:03;;;;;;;15.90;15.10;;;11.70;35.80;;;;;;4966602;28;20842;-57
2022/11/12 11:10:32;;;;;;;16.27;15.53;;;11.70;35.30;;;;;;4969934;28;20434;-57
2022/11/12 11:13:18;;;;;;;16.37;15.47;;;11.80;35.60;;;;;;4970177;28;20470;-57
2022/11/12 11:16:02;;;;;;;16.07;15.17;;;11.80;36.20;;;;;;4971181;28;20477;-59
2022/11/12 11:18:37;;;;;;;15.93;15.23;;;11.80;35.50;;;;;;4972918;28;20445;-55
2022/11/12 11:21:31;;;;;;;16.10;15.13;;;11.70;35.80;;;;;;4966297;28;20550;-59
2022/11/12 11:24:02;;;;;;;16.40;15.60;;;11.80;36.30;;;;;;4973103;28;20457;-57
2022/11/12 11:26:46;;;;;;;15.60;14.90;;;11.80;36.50;;;;;;4960798;28;20433;-57
2022/11/12 11:29:30;;;;;;;15.77;15.00;;;12.00;36.10;;;;;;4954265;28;20454;-56
2022/11/12 11:32:02;;;;;;;16.30;15.50;;;12.20;35.20;;;;;;4959720;28;21196;-57
2022/11/12 11:34:34;;;;;;;16.40;15.60;;;12.30;34.60;;;;;;4968715;28;20473;-57
2022/11/12 11:37:05;;;;;;;16.23;15.23;;;12.40;34.20;;;;;;4978724;28;20547;-55
2022/11/12 11:39:51;;;;;;;16.90;16.00;;;12.50;34.00;;;;;;4977039;28;20551;-57
2022/11/12 11:42:51;;;;;;;16.10;15.20;;;12.60;34.00;;;;;;4977394;28;20560;-57
2022/11/12 11:45:37;;;;;;;16.97;15.87;;;12.50;34.00;;;;;;4979340;28;20520;-56
2022/11/12 11:48:21;;;;;;;15.33;14.53;;;12.40;34.50;;;;;;4976680;28;20460;-56
2022/11/12 11:51:22;;;;;;;18.43;17.40;;;12.30;34.90;;;;;;4977851;28;20568;-57
2022/11/12 11:54:05;;;;;;;16.60;15.60;;;12.30;35.00;;;;;;4973579;28;20473;-57
2022/11/12 11:56:37;;;;;;;15.37;14.50;;;12.40;34.50;;;;;;4977674;28;20553;-56
2022/11/12 11:59:11;;;;;;;15.70;14.87;;;12.40;34.30;;;;;;4958245;28;20453;-57
2022/11/12 12:02:05;;;;;;;15.47;14.63;;;12.50;34.60;;;;;;4957883;28;20491;-57
2022/11/12 12:04:31;;;;;;;16.37;15.57;;;12.50;34.60;;;;;;4962279;28;20462;-57
2022/11/12 12:07:15;;;;;;;15.03;14.33;;;12.60;33.80;;;;;;4956533;28;20469;-56
2022/11/12 12:10:04;;;;;;;15.83;15.03;;;12.60;34.40;;;;;;4955732;28;20226;-57
2022/11/12 12:12:38;;;;;;;15.40;14.50;;;12.70;33.90;;;;;;4952747;28;20449;-57
2022/11/12 12:15:28;;;;;;;15.30;14.50;;;12.70;34.20;;;;;;4945445;28;20441;-56
2022/11/12 12:18:03;;;;;;;14.97;13.77;;;12.80;34.40;;;;;;4952942;28;20481;-58
2022/11/12 12:20:33;;;;;;;15.10;14.30;;;12.90;34.40;;;;;;4952730;28;20453;-57
2022/11/12 12:23:09;;;;;;;13.80;13.00;;;12.90;34.00;;;;;;4944964;28;20446;-57
2022/11/12 12:25:39;;;;;;;15.00;14.03;;;13.00;34.10;;;;;;4954281;28;20850;-58
2022/11/12 12:28:14;;;;;;;14.43;13.63;;;13.00;34.10;;;;;;4953156;28;21286;-58
2022/11/12 12:30:48;;;;;;;14.50;13.60;;;13.10;34.20;;;;;;4951065;28;20444;-58
2022/11/12 12:33:41;;;;;;;13.87;13.07;;;13.20;32.70;;;;;;4955391;28;20474;-53
2022/11/12 12:36:18;;;;;;;15.40;14.50;;;13.20;32.30;;;;;;4951017;28;20465;-56
2022/11/12 12:39:13;;;;;;;15.87;14.97;;;13.00;32.30;;;;;;4952790;28;20488;-56
2022/11/12 12:41:45;;;;;;;15.63;14.73;;;12.90;32.70;;;;;;4951157;28;20492;-54
2022/11/12 12:44:11;;;;;;;15.07;14.30;;;12.80;32.80;;;;;;4954569;28;20986;-56
2022/11/12 12:46:42;;;;;;;15.30;14.50;;;12.80;33.40;;;;;;4954947;28;20532;-55
2022/11/12 12:49:15;;;;;;;14.77;13.97;;;12.70;32.60;;;;;;4951842;28;20548;-53
2022/11/12 12:51:41;;;;;;;15.23;14.37;;;12.70;32.30;;;;;;4950630;28;20453;-53
2022/11/12 12:54:31;;;;;;;14.27;13.47;;;12.80;32.90;;;;;;4951424;28;20473;-56
2022/11/12 12:56:57;;;;;;;13.30;12.60;;;12.70;31.60;;;;;;4952883;28;20757;-58
2022/11/12 12:59:23;;;;;;;14.20;13.40;;;12.70;31.50;;;;;;4955068;28;20450;-58
2022/11/12 13:02:19;;;;;;;14.20;13.50;;;12.80;31.40;;;;;;4951310;28;20310;-53
2022/11/12 13:04:51;;;;;;;14.27;13.37;;;12.90;31.00;;;;;;4951698;28;20758;-56
2022/11/12 13:07:37;;;;;;;15.80;14.90;;;12.90;31.10;;;;;;4957162;28;20791;-53